createdAt,value
2018-12-22T00:00:28.228Z,11.9
2018-12-22T00:01:28.238Z,11.97
2018-12-22T00:02:27.973Z,11.81
2018-12-22T00:03:27.733Z,11.91
2018-12-22T00:04:28.223Z,11.88
2018-12-22T00:05:28.017Z,11.87
2018-12-22T00:06:27.971Z,11.91
2018-12-22T00:07:27.946Z,11.91
2018-12-22T00:08:27.939Z,11.88
2018-12-22T00:09:27.950Z,11.94
2018-12-22T00:10:27.932Z,11.9
2018-12-22T00:11:27.955Z,11.9
2018-12-22T00:12:27.941Z,11.88
2018-12-22T00:13:28.168Z,11.9
2018-12-22T00:14:27.927Z,11.88
2018-12-22T00:15:27.928Z,11.94
2018-12-22T00:16:27.918Z,11.86
2018-12-22T00:17:28.161Z,11.84
2018-12-22T00:18:30.854Z,11.87
2018-12-22T00:19:27.934Z,11.86
2018-12-22T00:20:27.912Z,11.95
2018-12-22T00:21:27.915Z,11.95
2018-12-22T00:22:27.988Z,12.04
2018-12-22T00:23:27.632Z,11.95
2018-12-22T00:24:28.129Z,12.06
2018-12-22T00:25:27.886Z,11.94
2018-12-22T00:26:27.613Z,12.02
2018-12-22T00:27:28.135Z,11.97
2018-12-22T00:28:27.884Z,11.99
2018-12-22T00:29:27.857Z,11.99
2018-12-22T00:30:28.091Z,11.99
2018-12-22T00:31:27.609Z,11.99
2018-12-22T00:32:27.863Z,11.99
2018-12-22T00:33:28.088Z,12.03
2018-12-22T00:34:28.088Z,12
2018-12-22T00:35:27.830Z,12.03
2018-12-22T00:36:27.828Z,12.04
2018-12-22T00:37:28.085Z,11.88
2018-12-22T00:38:27.822Z,11.95
2018-12-22T00:39:28.087Z,11.9
2018-12-22T00:40:27.823Z,11.94
2018-12-22T00:41:27.564Z,11.94
2018-12-22T00:42:28.082Z,11.94
2018-12-22T00:43:28.056Z,11.9
2018-12-22T00:44:28.106Z,11.81
2018-12-22T00:45:28.035Z,11.86
2018-12-22T00:46:28.056Z,11.86
2018-12-22T00:47:28.061Z,11.78
2018-12-22T00:48:27.533Z,11.81
2018-12-22T00:49:27.787Z,11.81
2018-12-22T00:50:28.027Z,11.83
2018-12-22T00:51:27.796Z,11.84
2018-12-22T00:52:27.765Z,11.94
2018-12-22T00:53:27.760Z,11.97
2018-12-22T00:54:28.020Z,11.81
2018-12-22T00:55:27.749Z,11.94
2018-12-22T00:56:27.751Z,11.91
2018-12-22T00:57:27.494Z,11.86
2018-12-22T00:58:35.397Z,11.94
2018-12-22T00:59:27.750Z,11.88
2018-12-22T01:00:28.005Z,11.84
2018-12-22T01:01:27.518Z,11.83
2018-12-22T01:02:27.721Z,11.84
2018-12-22T01:03:28.001Z,11.9
2018-12-22T01:04:27.742Z,11.91
2018-12-22T01:05:27.734Z,11.91
2018-12-22T01:06:27.958Z,11.88
2018-12-22T01:07:27.965Z,11.88
2018-12-22T01:08:27.468Z,11.86
2018-12-22T01:09:27.946Z,11.77
2018-12-22T01:10:27.699Z,11.84
2018-12-22T01:11:27.694Z,11.84
2018-12-22T01:12:27.443Z,11.8
2018-12-22T01:13:27.699Z,11.81
2018-12-22T01:14:27.706Z,11.8
2018-12-22T01:15:27.694Z,11.8
2018-12-22T01:16:27.668Z,11.75
2018-12-22T01:17:27.679Z,11.8
2018-12-22T01:18:27.669Z,11.75
2018-12-22T01:19:29.575Z,11.75
2018-12-22T01:20:27.913Z,11.75
2018-12-22T01:21:27.400Z,11.54
2018-12-22T01:22:27.651Z,11.6
2018-12-22T01:23:27.648Z,11.62
2018-12-22T01:24:27.398Z,11.59
2018-12-22T01:25:27.895Z,11.59
2018-12-22T01:26:27.394Z,11.59
2018-12-22T01:27:27.869Z,11.55
2018-12-22T01:28:27.888Z,11.52
2018-12-22T01:29:27.379Z,11.5
2018-12-22T01:30:27.862Z,11.47
2018-12-22T01:31:27.665Z,11.44
2018-12-22T01:32:27.844Z,11.43
2018-12-22T01:33:27.604Z,11.37
2018-12-22T01:34:27.606Z,11.48
2018-12-22T01:35:27.351Z,11.52
2018-12-22T01:36:27.348Z,11.54
2018-12-22T01:37:27.673Z,11.32
2018-12-22T01:38:27.843Z,11.45
2018-12-22T01:39:27.836Z,11.43
2018-12-22T01:40:27.579Z,11.41
2018-12-22T01:41:27.587Z,11.51
2018-12-22T01:42:27.808Z,11.45
2018-12-22T01:43:27.819Z,11.51
2018-12-22T01:44:27.542Z,11.41
2018-12-22T01:45:27.795Z,11.52
2018-12-22T01:46:27.868Z,11.47
2018-12-22T01:47:27.786Z,11.43
2018-12-22T01:48:27.541Z,11.47
2018-12-22T01:49:30.734Z,11.48
2018-12-22T01:50:27.313Z,11.43
2018-12-22T01:51:27.780Z,11.4
2018-12-22T01:52:27.526Z,11.44
2018-12-22T01:53:27.613Z,11.44
2018-12-22T01:54:27.784Z,11.55
2018-12-22T01:55:27.500Z,11.41
2018-12-22T01:56:27.735Z,11.47
2018-12-22T01:57:27.481Z,11.44
2018-12-22T01:58:27.478Z,11.48
2018-12-22T01:59:27.725Z,11.37
2018-12-22T02:00:27.722Z,11.4
2018-12-22T02:01:27.481Z,11.44
2018-12-22T02:02:27.467Z,11.5
2018-12-22T02:03:27.468Z,11.45
2018-12-22T02:04:27.530Z,11.4
2018-12-22T02:05:27.717Z,11.4
2018-12-22T02:06:27.204Z,11.41
2018-12-22T02:07:27.480Z,11.37
2018-12-22T02:08:27.189Z,11.41
2018-12-22T02:09:27.444Z,11.5
2018-12-22T02:10:27.681Z,11.43
2018-12-22T02:11:27.678Z,11.43
2018-12-22T02:12:27.430Z,11.43
2018-12-22T02:13:27.421Z,11.47
2018-12-22T02:14:27.667Z,11.43
2018-12-22T02:15:27.277Z,11.41
2018-12-22T02:16:27.414Z,11.4
2018-12-22T02:17:27.410Z,11.4
2018-12-22T02:18:27.662Z,11.44
2018-12-22T02:19:27.658Z,11.36
2018-12-22T02:20:27.650Z,11.4
2018-12-22T02:21:27.393Z,11.37
2018-12-22T02:22:27.743Z,11.43
2018-12-22T02:23:27.620Z,11.35
2018-12-22T02:24:27.370Z,11.37
2018-12-22T02:25:27.359Z,11.35
2018-12-22T02:26:27.783Z,11.41
2018-12-22T02:27:27.362Z,11.23
2018-12-22T02:28:27.363Z,11.32
2018-12-22T02:29:27.350Z,11.35
2018-12-22T02:30:27.604Z,11.32
2018-12-22T02:31:27.338Z,11.29
2018-12-22T02:32:27.340Z,11.4
2018-12-22T02:33:27.348Z,11.43
2018-12-22T02:34:27.081Z,11.37
2018-12-22T02:35:27.612Z,11.4
2018-12-22T02:36:27.570Z,11.41
2018-12-22T02:37:27.570Z,11.43
2018-12-22T02:38:27.570Z,11.45
2018-12-22T02:39:27.623Z,11.36
2018-12-22T02:40:27.565Z,11.41
2018-12-22T02:41:27.297Z,11.35
2018-12-22T02:42:27.308Z,11.4
2018-12-22T02:43:27.054Z,11.33
2018-12-22T02:44:27.290Z,11.36
2018-12-22T02:45:27.282Z,11.4
2018-12-22T02:46:27.281Z,11.3
2018-12-22T02:47:27.281Z,11.29
2018-12-22T02:48:27.255Z,11.4
2018-12-22T02:49:27.283Z,11.43
2018-12-22T02:50:29.158Z,11.32
2018-12-22T02:51:27.268Z,11.36
2018-12-22T02:52:27.250Z,11.33
2018-12-22T02:53:27.492Z,11.33
2018-12-22T02:54:27.288Z,11.37
2018-12-22T02:55:27.508Z,11.33
2018-12-22T02:56:27.508Z,11.3
2018-12-22T02:57:27.240Z,11.3
2018-12-22T02:58:27.549Z,11.27
2018-12-22T02:59:27.553Z,11.27
2018-12-22T03:00:27.462Z,11.27
2018-12-22T03:01:27.206Z,11.33
2018-12-22T03:02:27.474Z,11.32
2018-12-22T03:03:26.974Z,11.33
2018-12-22T03:04:27.417Z,11.35
2018-12-22T03:05:27.247Z,11.4
2018-12-22T03:06:27.188Z,11.37
2018-12-22T03:07:27.424Z,11.41
2018-12-22T03:08:27.478Z,11.35
2018-12-22T03:09:27.438Z,11.3
2018-12-22T03:10:27.422Z,11.44
2018-12-22T03:11:27.422Z,11.35
2018-12-22T03:12:27.462Z,11.41
2018-12-22T03:13:27.163Z,11.4
2018-12-22T03:14:27.145Z,11.33
2018-12-22T03:15:27.411Z,11.41
2018-12-22T03:16:27.394Z,11.37
2018-12-22T03:17:27.258Z,11.43
2018-12-22T03:18:27.147Z,11.55
2018-12-22T03:19:27.527Z,11.36
2018-12-22T03:20:28.645Z,11.43
2018-12-22T03:21:27.132Z,11.44
2018-12-22T03:22:27.133Z,11.45
2018-12-22T03:23:27.375Z,11.37
2018-12-22T03:24:27.359Z,11.44
2018-12-22T03:25:27.382Z,11.37
2018-12-22T03:26:27.349Z,11.4
2018-12-22T03:27:27.348Z,11.37
2018-12-22T03:28:27.342Z,11.37
2018-12-22T03:29:27.332Z,11.37
2018-12-22T03:30:27.102Z,11.4
2018-12-22T03:31:27.350Z,11.36
2018-12-22T03:32:27.334Z,11.37
2018-12-22T03:33:27.325Z,11.41
2018-12-22T03:34:27.326Z,11.35
2018-12-22T03:35:27.392Z,11.44
2018-12-22T03:36:27.310Z,11.43
2018-12-22T03:37:27.048Z,11.36
2018-12-22T03:38:26.821Z,11.43
2018-12-22T03:39:27.303Z,11.32
2018-12-22T03:40:27.391Z,11.35
2018-12-22T03:41:27.286Z,11.29
2018-12-22T03:42:27.036Z,11.3
2018-12-22T03:43:27.280Z,11.19
2018-12-22T03:44:27.282Z,11.14
2018-12-22T03:45:27.022Z,11.14
2018-12-22T03:46:27.272Z,11.1
2018-12-22T03:47:27.282Z,11.08
2018-12-22T03:48:27.266Z,11.22
2018-12-22T03:49:27.286Z,11.14
2018-12-22T03:50:30.658Z,11.07
2018-12-22T03:51:26.754Z,11.15
2018-12-22T03:52:27.004Z,11.14
2018-12-22T03:53:27.245Z,11.12
2018-12-22T03:54:27.220Z,11.14
2018-12-22T03:55:27.217Z,11.1
2018-12-22T03:56:27.216Z,11.18
2018-12-22T03:57:27.226Z,11.11
2018-12-22T03:58:27.221Z,11.1
2018-12-22T03:59:29.935Z,11.11
2018-12-22T04:00:26.947Z,11.12
2018-12-22T04:01:26.935Z,11
2018-12-22T04:02:26.967Z,11.05
2018-12-22T04:03:27.216Z,11.05
2018-12-22T04:04:26.943Z,11.12
2018-12-22T04:05:27.180Z,11.12
2018-12-22T04:06:26.918Z,11.04
2018-12-22T04:07:27.158Z,11.18
2018-12-22T04:08:27.167Z,11.04
2018-12-22T04:09:26.911Z,11.1
2018-12-22T04:10:27.158Z,11
2018-12-22T04:11:26.931Z,11.05
2018-12-22T04:12:26.915Z,10.99
2018-12-22T04:13:27.147Z,11.08
2018-12-22T04:14:27.130Z,10.93
2018-12-22T04:15:27.122Z,11.1
2018-12-22T04:16:27.126Z,11.07
2018-12-22T04:17:26.861Z,11.1
2018-12-22T04:18:27.112Z,11.14
2018-12-22T04:19:26.864Z,11.12
2018-12-22T04:20:27.111Z,11.17
2018-12-22T04:21:26.853Z,11.12
2018-12-22T04:22:27.099Z,11.14
2018-12-22T04:23:26.834Z,11.07
2018-12-22T04:24:27.090Z,11.07
2018-12-22T04:25:27.079Z,11.12
2018-12-22T04:26:27.078Z,11.12
2018-12-22T04:27:27.071Z,11.05
2018-12-22T04:28:26.816Z,11.1
2018-12-22T04:29:36.140Z,11.04
2018-12-22T04:30:27.053Z,11
2018-12-22T04:31:27.042Z,10.94
2018-12-22T04:32:27.060Z,11.08
2018-12-22T04:33:27.039Z,10.99
2018-12-22T04:34:27.044Z,11.08
2018-12-22T04:35:26.542Z,10.99
2018-12-22T04:36:27.099Z,10.97
2018-12-22T04:37:27.017Z,11.07
2018-12-22T04:38:27.012Z,10.94
2018-12-22T04:39:27.006Z,10.97
2018-12-22T04:40:27.006Z,10.92
2018-12-22T04:41:27.005Z,10.97
2018-12-22T04:42:27.004Z,10.96
2018-12-22T04:43:26.985Z,10.96
2018-12-22T04:44:26.983Z,10.99
2018-12-22T04:45:26.993Z,10.93
2018-12-22T04:46:26.756Z,10.99
2018-12-22T04:47:26.986Z,10.99
2018-12-22T04:48:26.715Z,11.05
2018-12-22T04:49:26.961Z,11.08
2018-12-22T04:50:26.700Z,11.19
2018-12-22T04:51:28.304Z,11.32
2018-12-22T04:52:26.933Z,11.44
2018-12-22T04:53:26.939Z,11.45
2018-12-22T04:54:26.445Z,11.68
2018-12-22T04:55:26.681Z,11.72
2018-12-22T04:56:26.675Z,11.73
2018-12-22T04:57:26.683Z,11.84
2018-12-22T04:58:26.904Z,11.95
2018-12-22T04:59:26.913Z,11.86
2018-12-22T05:00:26.894Z,11.84
2018-12-22T05:01:26.650Z,11.97
2018-12-22T05:02:26.643Z,11.95
2018-12-22T05:03:26.646Z,11.87
2018-12-22T05:04:26.874Z,11.9
2018-12-22T05:05:26.865Z,12
2018-12-22T05:06:29.156Z,12.02
2018-12-22T05:07:26.862Z,12.02
2018-12-22T05:08:26.634Z,12.04
2018-12-22T05:09:26.887Z,12.04
2018-12-22T05:10:26.849Z,12.15
2018-12-22T05:11:26.605Z,12.17
2018-12-22T05:12:26.844Z,12.21
2018-12-22T05:13:26.835Z,12.2
2018-12-22T05:14:26.610Z,12.15
2018-12-22T05:15:26.582Z,12.24
2018-12-22T05:16:26.604Z,12.24
2018-12-22T05:17:26.596Z,12.32
2018-12-22T05:18:26.825Z,12.39
2018-12-22T05:19:26.330Z,12.28
2018-12-22T05:20:26.822Z,12.39
2018-12-22T05:21:26.807Z,12.53
2018-12-22T05:22:26.803Z,12.46
2018-12-22T05:23:26.795Z,12.45
2018-12-22T05:24:26.793Z,12.62
2018-12-22T05:25:26.799Z,12.64
2018-12-22T05:26:26.871Z,12.76
2018-12-22T05:27:26.793Z,12.68
2018-12-22T05:28:26.785Z,12.67
2018-12-22T05:29:26.550Z,12.76
2018-12-22T05:30:26.775Z,12.78
2018-12-22T05:31:26.755Z,12.73
2018-12-22T05:32:26.760Z,12.67
2018-12-22T05:33:26.754Z,12.7
2018-12-22T05:34:26.500Z,12.64
2018-12-22T05:35:26.747Z,12.78
2018-12-22T05:36:26.501Z,12.76
2018-12-22T05:37:26.741Z,12.78
2018-12-22T05:38:26.753Z,12.82
2018-12-22T05:39:26.735Z,12.79
2018-12-22T05:40:26.737Z,12.8
2018-12-22T05:41:26.773Z,12.73
2018-12-22T05:42:26.721Z,12.68
2018-12-22T05:43:26.716Z,12.8
2018-12-22T05:44:26.478Z,12.76
2018-12-22T05:45:26.712Z,12.86
2018-12-22T05:46:26.215Z,12.85
2018-12-22T05:47:26.456Z,12.82
2018-12-22T05:48:26.706Z,12.79
2018-12-22T05:49:26.456Z,12.93
2018-12-22T05:50:26.707Z,12.87
2018-12-22T05:51:26.436Z,12.8
2018-12-22T05:52:26.690Z,12.91
2018-12-22T05:53:26.426Z,12.82
2018-12-22T05:54:26.431Z,12.82
2018-12-22T05:55:26.448Z,12.79
2018-12-22T05:56:26.657Z,12.8
2018-12-22T05:57:26.658Z,12.82
2018-12-22T05:58:26.167Z,12.8
2018-12-22T05:59:26.409Z,12.79
2018-12-22T06:00:26.655Z,12.76
2018-12-22T06:01:26.393Z,12.8
2018-12-22T06:02:26.635Z,12.8
2018-12-22T06:03:26.142Z,12.82
2018-12-22T06:04:26.633Z,12.93
2018-12-22T06:05:26.624Z,12.87
2018-12-22T06:06:26.621Z,12.97
2018-12-22T06:07:26.618Z,12.94
2018-12-22T06:08:26.378Z,12.85
2018-12-22T06:09:26.112Z,12.9
2018-12-22T06:10:26.390Z,12.98
2018-12-22T06:11:26.615Z,12.94
2018-12-22T06:12:26.112Z,12.95
2018-12-22T06:13:26.597Z,12.98
2018-12-22T06:14:26.608Z,12.94
2018-12-22T06:15:26.343Z,12.95
2018-12-22T06:16:26.336Z,12.93
2018-12-22T06:17:27.535Z,12.97
2018-12-22T06:18:26.089Z,13
2018-12-22T06:19:26.589Z,13.01
2018-12-22T06:20:26.325Z,13.04
2018-12-22T06:21:26.312Z,13
2018-12-22T06:22:26.614Z,13
2018-12-22T06:23:26.769Z,12.94
2018-12-22T06:24:26.561Z,12.94
2018-12-22T06:25:26.558Z,12.86
2018-12-22T06:26:26.292Z,12.86
2018-12-22T06:27:26.557Z,12.85
2018-12-22T06:28:26.580Z,12.8
2018-12-22T06:29:26.552Z,12.85
2018-12-22T06:30:26.532Z,12.79
2018-12-22T06:31:26.273Z,12.72
2018-12-22T06:32:26.267Z,12.7
2018-12-22T06:33:26.267Z,12.7
2018-12-22T06:34:26.010Z,12.72
2018-12-22T06:35:26.251Z,12.62
2018-12-22T06:36:26.510Z,12.64
2018-12-22T06:37:26.312Z,12.6
2018-12-22T06:38:25.992Z,12.55
2018-12-22T06:39:26.489Z,12.47
2018-12-22T06:40:26.243Z,12.53
2018-12-22T06:41:26.229Z,12.43
2018-12-22T06:42:26.233Z,12.45
2018-12-22T06:43:26.486Z,12.42
2018-12-22T06:44:26.233Z,12.45
2018-12-22T06:45:26.471Z,12.24
2018-12-22T06:46:26.464Z,12.25
2018-12-22T06:47:26.449Z,12.37
2018-12-22T06:48:26.560Z,12.36
2018-12-22T06:49:26.197Z,12.28
2018-12-22T06:50:26.465Z,12.27
2018-12-22T06:51:26.443Z,12.36
2018-12-22T06:52:30.111Z,12.29
2018-12-22T06:53:26.200Z,12.28
2018-12-22T06:54:26.429Z,12.29
2018-12-22T06:55:26.191Z,12.35
2018-12-22T06:56:25.932Z,12.28
2018-12-22T06:57:26.424Z,12.32
2018-12-22T06:58:26.421Z,12.27
2018-12-22T06:59:26.408Z,12.28
2018-12-22T07:00:26.414Z,12.22
2018-12-22T07:01:26.409Z,12.24
2018-12-22T07:02:26.138Z,12.2
2018-12-22T07:03:26.385Z,12.2
2018-12-22T07:04:26.131Z,12.27
2018-12-22T07:05:25.884Z,12.21
2018-12-22T07:06:26.139Z,12.22
2018-12-22T07:07:26.465Z,12.15
2018-12-22T07:08:26.374Z,12.36
2018-12-22T07:09:26.120Z,12.21
2018-12-22T07:10:28.006Z,12.22
2018-12-22T07:11:25.849Z,12.21
2018-12-22T07:12:26.462Z,12.21
2018-12-22T07:13:26.341Z,12.17
2018-12-22T07:14:25.858Z,12.27
2018-12-22T07:15:26.096Z,12.29
2018-12-22T07:16:26.333Z,12.31
2018-12-22T07:17:26.339Z,12.18
2018-12-22T07:18:26.317Z,12.29
2018-12-22T07:19:25.829Z,12.29
2018-12-22T07:20:26.317Z,12.29
2018-12-22T07:21:26.070Z,12.37
2018-12-22T07:22:28.214Z,12.29
2018-12-22T07:23:26.308Z,12.4
2018-12-22T07:24:26.312Z,12.36
2018-12-22T07:25:26.288Z,12.37
2018-12-22T07:26:26.050Z,12.39
2018-12-22T07:27:26.284Z,12.31
2018-12-22T07:28:26.037Z,12.28
2018-12-22T07:29:26.043Z,12.39
2018-12-22T07:30:30.862Z,12.35
2018-12-22T07:31:26.282Z,12.4
2018-12-22T07:32:26.279Z,12.36
2018-12-22T07:33:26.263Z,12.36
2018-12-22T07:34:26.257Z,12.31
2018-12-22T07:35:26.245Z,12.27
2018-12-22T07:36:27.662Z,12.2
2018-12-22T07:37:26.010Z,12.15
2018-12-22T07:38:26.038Z,12.2
2018-12-22T07:39:26.230Z,12.1
2018-12-22T07:40:26.241Z,12.04
2018-12-22T07:41:26.218Z,12.03
2018-12-22T07:42:26.226Z,12.03
2018-12-22T07:43:25.963Z,11.88
2018-12-22T07:44:26.225Z,11.88
2018-12-22T07:45:26.234Z,11.9
2018-12-22T07:46:25.707Z,11.88
2018-12-22T07:47:25.949Z,11.8
2018-12-22T07:48:26.196Z,11.81
2018-12-22T07:49:25.963Z,11.81
2018-12-22T07:50:25.929Z,11.7
2018-12-22T07:51:25.926Z,11.72
2018-12-22T07:52:26.165Z,11.66
2018-12-22T07:53:29.661Z,11.6
2018-12-22T07:54:26.164Z,11.55
2018-12-22T07:55:26.163Z,11.5
2018-12-22T07:56:25.898Z,11.59
2018-12-22T07:57:26.145Z,11.6
2018-12-22T07:58:25.897Z,11.51
2018-12-22T07:59:26.145Z,11.6
2018-12-22T08:00:34.550Z,11.6
2018-12-22T08:01:26.153Z,11.59
2018-12-22T08:02:26.139Z,11.57
2018-12-22T08:03:26.142Z,11.51
2018-12-22T08:04:25.878Z,11.54
2018-12-22T08:05:25.621Z,11.54
2018-12-22T08:06:26.142Z,11.51
2018-12-22T08:07:25.855Z,11.54
2018-12-22T08:08:28.760Z,11.54
2018-12-22T08:09:26.098Z,11.5
2018-12-22T08:10:26.091Z,11.62
2018-12-22T08:11:26.110Z,11.6
2018-12-22T08:12:26.208Z,11.59
2018-12-22T08:13:26.091Z,11.59
2018-12-22T08:14:26.066Z,11.63
2018-12-22T08:15:26.071Z,11.62
2018-12-22T08:16:25.834Z,11.54
2018-12-22T08:17:26.068Z,11.59
2018-12-22T08:18:26.047Z,11.65
2018-12-22T08:19:25.805Z,11.66
2018-12-22T08:20:26.048Z,11.68
2018-12-22T08:21:25.806Z,11.66
2018-12-22T08:22:25.794Z,11.77
2018-12-22T08:23:26.026Z,11.73
2018-12-22T08:24:25.822Z,11.81
2018-12-22T08:25:26.013Z,11.81
2018-12-22T08:26:26.022Z,11.9
2018-12-22T08:27:26.018Z,11.83
2018-12-22T08:28:25.787Z,11.88
2018-12-22T08:29:25.781Z,11.95
2018-12-22T08:30:25.775Z,11.94
2018-12-22T08:31:27.683Z,12.04
2018-12-22T08:32:25.986Z,12.06
2018-12-22T08:33:26.021Z,12.07
2018-12-22T08:34:25.993Z,12.17
2018-12-22T08:35:25.977Z,12.17
2018-12-22T08:36:25.989Z,12.21
2018-12-22T08:37:25.719Z,12.15
2018-12-22T08:38:26.069Z,12.28
2018-12-22T08:39:26.005Z,12.31
2018-12-22T08:40:25.982Z,12.25
2018-12-22T08:41:25.951Z,12.24
2018-12-22T08:42:25.939Z,12.27
2018-12-22T08:43:25.936Z,12.35
2018-12-22T08:44:25.793Z,12.4
2018-12-22T08:45:25.925Z,12.36
2018-12-22T08:46:25.682Z,12.29
2018-12-22T08:47:25.729Z,12.22
2018-12-22T08:48:25.679Z,12.31
2018-12-22T08:49:25.676Z,12.4
2018-12-22T08:50:25.410Z,12.36
2018-12-22T08:51:25.912Z,12.31
2018-12-22T08:52:25.668Z,12.37
2018-12-22T08:53:25.646Z,12.27
2018-12-22T08:54:27.806Z,12.35
2018-12-22T08:55:25.632Z,12.24
2018-12-22T08:56:25.962Z,12.21
2018-12-22T08:57:25.652Z,12.21
2018-12-22T08:58:25.629Z,12.12
2018-12-22T08:59:25.885Z,12.12
2018-12-22T09:00:25.614Z,12
2018-12-22T09:01:25.974Z,12.03
2018-12-22T09:02:25.857Z,11.99
2018-12-22T09:03:25.606Z,11.99
2018-12-22T09:04:25.606Z,12
2018-12-22T09:05:25.839Z,12
2018-12-22T09:06:25.841Z,12.04
2018-12-22T09:07:25.830Z,12.03
2018-12-22T09:08:25.587Z,11.9
2018-12-22T09:09:25.880Z,12
2018-12-22T09:10:25.569Z,11.97
2018-12-22T09:11:25.816Z,11.95
2018-12-22T09:12:25.825Z,12.04
2018-12-22T09:13:25.961Z,12.04
2018-12-22T09:14:25.811Z,12.13
2018-12-22T09:15:25.816Z,12.07
2018-12-22T09:16:25.566Z,12.06
2018-12-22T09:17:25.801Z,12.1
2018-12-22T09:18:25.816Z,12.1
2018-12-22T09:19:25.776Z,12.09
2018-12-22T09:20:25.533Z,12.06
2018-12-22T09:21:25.775Z,11.9
2018-12-22T09:22:25.538Z,11.84
2018-12-22T09:23:25.812Z,11.91
2018-12-22T09:24:31.071Z,11.87
2018-12-22T09:25:25.535Z,11.84
2018-12-22T09:26:25.761Z,11.84
2018-12-22T09:27:25.767Z,11.8
2018-12-22T09:28:25.759Z,11.8
2018-12-22T09:29:25.765Z,11.72
2018-12-22T09:30:25.730Z,11.66
2018-12-22T09:31:25.740Z,11.81
2018-12-22T09:32:25.483Z,11.78
2018-12-22T09:33:25.493Z,11.73
2018-12-22T09:34:25.467Z,11.73
2018-12-22T09:35:25.479Z,11.72
2018-12-22T09:36:25.466Z,11.72
2018-12-22T09:37:25.875Z,11.65
2018-12-22T09:38:25.736Z,11.68
2018-12-22T09:39:25.724Z,11.69
2018-12-22T09:40:25.696Z,11.75
2018-12-22T09:41:25.715Z,11.72
2018-12-22T09:42:25.690Z,11.7
2018-12-22T09:43:25.684Z,11.68
2018-12-22T09:44:25.469Z,11.72
2018-12-22T09:45:25.198Z,11.68
2018-12-22T09:46:25.692Z,11.68
2018-12-22T09:47:25.673Z,11.72
2018-12-22T09:48:25.666Z,11.59
2018-12-22T09:49:25.169Z,11.52
2018-12-22T09:50:25.654Z,11.51
2018-12-22T09:51:25.406Z,11.48
2018-12-22T09:52:25.650Z,11.47
2018-12-22T09:53:25.643Z,11.4
2018-12-22T09:54:25.388Z,11.52
2018-12-22T09:55:27.056Z,11.45
2018-12-22T09:56:25.390Z,11.43
2018-12-22T09:57:25.742Z,11.4
2018-12-22T09:58:25.730Z,11.4
2018-12-22T09:59:25.624Z,11.4
2018-12-22T10:00:25.634Z,11.45
2018-12-22T10:01:25.604Z,11.41
2018-12-22T10:02:25.358Z,11.4
2018-12-22T10:03:25.359Z,11.47
2018-12-22T10:04:25.596Z,11.44
2018-12-22T10:05:25.607Z,11.43
2018-12-22T10:06:25.661Z,11.43
2018-12-22T10:07:25.359Z,11.43
2018-12-22T10:08:25.352Z,11.43
2018-12-22T10:09:25.340Z,11.47
2018-12-22T10:10:25.398Z,11.37
2018-12-22T10:11:25.576Z,11.52
2018-12-22T10:12:25.550Z,11.44
2018-12-22T10:13:25.556Z,11.41
2018-12-22T10:14:25.547Z,11.44
2018-12-22T10:15:25.552Z,11.55
2018-12-22T10:16:25.537Z,11.48
2018-12-22T10:17:25.549Z,11.47
2018-12-22T10:18:25.281Z,11.5
2018-12-22T10:19:25.294Z,11.51
2018-12-22T10:20:26.331Z,11.52
2018-12-22T10:21:25.535Z,11.59
2018-12-22T10:22:25.279Z,11.55
2018-12-22T10:23:25.270Z,11.55
2018-12-22T10:24:25.518Z,11.62
2018-12-22T10:25:26.354Z,11.72
2018-12-22T10:26:25.522Z,11.68
2018-12-22T10:27:27.329Z,11.77
2018-12-22T10:28:25.508Z,11.78
2018-12-22T10:29:25.493Z,11.81
2018-12-22T10:30:25.496Z,11.78
2018-12-22T10:31:25.479Z,11.91
2018-12-22T10:32:25.242Z,11.84
2018-12-22T10:33:25.490Z,11.9
2018-12-22T10:34:25.262Z,11.88
2018-12-22T10:35:25.463Z,11.91
2018-12-22T10:36:25.231Z,11.97
2018-12-22T10:37:25.222Z,11.86
2018-12-22T10:38:25.202Z,11.95
2018-12-22T10:39:25.457Z,11.95
2018-12-22T10:40:25.440Z,11.9
2018-12-22T10:41:25.447Z,11.94
2018-12-22T10:42:25.193Z,11.97
2018-12-22T10:43:25.182Z,12.04
2018-12-22T10:44:25.429Z,11.97
2018-12-22T10:45:25.172Z,11.94
2018-12-22T10:46:25.411Z,12.04
2018-12-22T10:47:25.408Z,12.03
2018-12-22T10:48:25.422Z,12.12
2018-12-22T10:49:25.183Z,12.21
2018-12-22T10:50:25.265Z,12.17
2018-12-22T10:51:28.987Z,12.24
2018-12-22T10:52:25.430Z,12.31
2018-12-22T10:53:25.388Z,12.29
2018-12-22T10:54:25.152Z,12.4
2018-12-22T10:55:25.138Z,12.25
2018-12-22T10:56:25.141Z,12.36
2018-12-22T10:57:25.378Z,12.4
2018-12-22T10:58:25.367Z,12.47
2018-12-22T10:59:25.374Z,12.4
2018-12-22T11:00:25.353Z,12.46
2018-12-22T11:01:31.446Z,12.54
2018-12-22T11:02:26.210Z,12.53
2018-12-22T11:03:25.112Z,12.5
2018-12-22T11:04:25.456Z,12.49
2018-12-22T11:05:25.338Z,12.49
2018-12-22T11:06:24.883Z,12.5
2018-12-22T11:07:25.333Z,12.49
2018-12-22T11:08:25.339Z,12.5
2018-12-22T11:09:25.075Z,12.49
2018-12-22T11:10:24.827Z,12.58
2018-12-22T11:11:25.152Z,12.6
2018-12-22T11:12:25.318Z,12.6
2018-12-22T11:13:25.316Z,12.53
2018-12-22T11:14:25.323Z,12.53
2018-12-22T11:15:25.313Z,12.45
2018-12-22T11:16:25.289Z,12.49
2018-12-22T11:17:25.296Z,12.49
2018-12-22T11:18:25.285Z,12.5
2018-12-22T11:19:25.282Z,12.45
2018-12-22T11:20:25.283Z,12.46
2018-12-22T11:21:25.292Z,12.54
2018-12-22T11:22:25.037Z,12.57
2018-12-22T11:23:25.631Z,12.55
2018-12-22T11:24:25.267Z,12.64
2018-12-22T11:25:25.121Z,12.65
2018-12-22T11:26:26.414Z,12.68
2018-12-22T11:27:25.007Z,12.7
2018-12-22T11:28:25.260Z,12.79
2018-12-22T11:29:25.248Z,12.79
2018-12-22T11:30:25.366Z,12.86
2018-12-22T11:31:25.250Z,12.87
2018-12-22T11:32:25.353Z,12.82
2018-12-22T11:33:25.251Z,12.79
2018-12-22T11:34:25.256Z,12.82
2018-12-22T11:35:24.982Z,12.78
2018-12-22T11:36:25.251Z,12.75
2018-12-22T11:37:24.980Z,12.73
2018-12-22T11:38:25.243Z,12.65
2018-12-22T11:39:25.214Z,12.64
2018-12-22T11:40:25.222Z,12.6
2018-12-22T11:41:24.829Z,12.5
2018-12-22T11:42:25.614Z,12.49
2018-12-22T11:43:25.212Z,12.39
2018-12-22T11:44:24.982Z,12.36
2018-12-22T11:45:25.198Z,12.31
2018-12-22T11:46:24.952Z,12.28
2018-12-22T11:47:25.201Z,12.2
2018-12-22T11:48:25.199Z,12.13
2018-12-22T11:49:25.184Z,12.09
2018-12-22T11:50:25.228Z,11.97
2018-12-22T11:51:25.169Z,11.8
2018-12-22T11:52:24.931Z,11.73
2018-12-22T11:53:24.918Z,11.68
2018-12-22T11:54:24.913Z,11.66
2018-12-22T11:55:25.157Z,11.55
2018-12-22T11:56:26.503Z,11.59
2018-12-22T11:57:25.158Z,11.45
2018-12-22T11:58:24.892Z,11.44
2018-12-22T11:59:24.898Z,11.41
2018-12-22T12:00:25.168Z,11.41
2018-12-22T12:01:24.908Z,11.4
2018-12-22T12:02:25.165Z,11.48
2018-12-22T12:03:24.878Z,11.4
2018-12-22T12:04:25.115Z,11.44
2018-12-22T12:05:25.150Z,11.33
2018-12-22T12:06:25.105Z,11.4
2018-12-22T12:07:25.107Z,11.3
2018-12-22T12:08:25.103Z,11.37
2018-12-22T12:09:24.841Z,11.36
2018-12-22T12:10:25.103Z,11.43
2018-12-22T12:11:24.882Z,11.55
2018-12-22T12:12:25.075Z,11.43
2018-12-22T12:13:25.069Z,11.47
2018-12-22T12:14:24.824Z,11.47
2018-12-22T12:15:24.833Z,11.5
2018-12-22T12:16:25.075Z,11.54
2018-12-22T12:17:25.068Z,11.47
2018-12-22T12:18:24.828Z,11.47
2018-12-22T12:19:25.043Z,11.41
2018-12-22T12:20:24.798Z,11.33
2018-12-22T12:21:25.063Z,11.35
2018-12-22T12:22:24.781Z,11.33
2018-12-22T12:23:24.529Z,11.35
2018-12-22T12:24:24.772Z,11.25
2018-12-22T12:25:25.015Z,11.37
2018-12-22T12:26:25.488Z,11.36
2018-12-22T12:27:25.016Z,11.27
2018-12-22T12:28:24.760Z,11.29
2018-12-22T12:29:24.774Z,11.27
2018-12-22T12:30:24.986Z,11.27
2018-12-22T12:31:24.745Z,11.25
2018-12-22T12:32:24.735Z,11.25
2018-12-22T12:33:24.989Z,11.18
2018-12-22T12:34:24.981Z,11.27
2018-12-22T12:35:24.725Z,11.19
2018-12-22T12:36:24.983Z,11.29
2018-12-22T12:37:24.483Z,11.3
2018-12-22T12:38:24.964Z,11.33
2018-12-22T12:39:24.703Z,11.37
2018-12-22T12:40:24.701Z,11.33
2018-12-22T12:41:24.448Z,11.33
2018-12-22T12:42:24.704Z,11.32
2018-12-22T12:43:24.537Z,11.44
2018-12-22T12:44:24.926Z,11.33
2018-12-22T12:45:24.930Z,11.29
2018-12-22T12:46:24.684Z,11.36
2018-12-22T12:47:24.676Z,11.4
2018-12-22T12:48:24.662Z,11.41
2018-12-22T12:49:24.676Z,11.5
2018-12-22T12:50:24.898Z,11.48
2018-12-22T12:51:24.648Z,11.57
2018-12-22T12:52:24.675Z,11.69
2018-12-22T12:53:24.650Z,11.7
2018-12-22T12:54:24.655Z,11.75
2018-12-22T12:55:24.652Z,11.8
2018-12-22T12:56:24.973Z,11.86
2018-12-22T12:57:24.628Z,11.88